sensor_id;sensor_type;location;lat;lon;timestamp;pressure;altitude;pressure_sealevel;temperature;humidity
56198;BME280;42700;42.524;12.052;2022-11-15T00:01:26;97215.97;;;9.10;100.00
56198;BME280;42700;42.524;12.052;2022-11-15T00:03:51;97121.34;;;9.03;100.00
56198;BME280;42700;42.524;12.052;2022-11-15T00:06:17;97118.91;;;9.02;100.00
56198;BME280;42700;42.524;12.052;2022-11-15T00:08:42;97101.34;;;9.01;100.00
56198;BME280;42700;42.524;12.052;2022-11-15T00:11:09;97121.72;;;9.00;100.00
56198;BME280;42700;42.524;12.052;2022-11-15T00:13:35;97123.34;;;9.01;100.00
56198;BME280;42700;42.524;12.052;2022-11-15T00:16:01;97104.19;;;8.99;100.00
56198;BME280;42700;42.524;12.052;2022-11-15T00:18:27;97162.09;;;9.02;100.00
56198;BME280;42700;42.524;12.052;2022-11-15T00:20:53;97094.59;;;8.98;100.00
56198;BME280;42700;42.524;12.052;2022-11-15T00:23:18;97060.50;;;8.95;100.00
56198;BME280;42700;42.524;12.052;2022-11-15T00:25:43;97032.78;;;8.91;100.00
56198;BME280;42700;42.524;12.052;2022-11-15T00:28:09;96983.00;;;8.86;100.00
56198;BME280;42700;42.524;12.052;2022-11-15T00:30:35;96952.78;;;8.81;100.00
56198;BME280;42700;42.524;12.052;2022-11-15T00:33:04;96919.09;;;8.75;100.00
56198;BME280;42700;42.524;12.052;2022-11-15T00:35:31;96895.00;;;8.70;100.00
56198;BME280;42700;42.524;12.052;2022-11-15T00:37:57;96910.28;;;8.67;100.00
56198;BME280;42700;42.524;12.052;2022-11-15T00:40:22;96873.94;;;8.61;100.00
56198;BME280;42700;42.524;12.052;2022-11-15T00:42:48;96867.34;;;8.57;100.00
56198;BME280;42700;42.524;12.052;2022-11-15T00:45:13;96844.94;;;8.53;100.00
56198;BME280;42700;42.524;12.052;2022-11-15T00:47:39;96841.66;;;8.51;100.00
56198;BME280;42700;42.524;12.052;2022-11-15T00:50:04;96822.88;;;8.46;100.00
56198;BME280;42700;42.524;12.052;2022-11-15T00:52:30;96810.97;;;8.42;100.00
56198;BME280;42700;42.524;12.052;2022-11-15T00:54:55;96805.41;;;8.37;100.00
56198;BME280;42700;42.524;12.052;2022-11-15T00:57:21;96804.78;;;8.35;100.00
56198;BME280;42700;42.524;12.052;2022-11-15T00:59:46;96879.41;;;8.45;100.00
56198;BME280;42700;42.524;12.052;2022-11-15T01:02:12;96862.25;;;8.41;100.00
56198;BME280;42700;42.524;12.052;2022-11-15T01:04:37;96834.50;;;8.37;100.00
56198;BME280;42700;42.524;12.052;2022-11-15T01:07:03;96809.63;;;8.31;100.00
56198;BME280;42700;42.524;12.052;2022-11-15T01:09:28;96795.28;;;8.25;100.00
56198;BME280;42700;42.524;12.052;2022-11-15T01:11:54;96785.06;;;8.22;100.00
56198;BME280;42700;42.524;12.052;2022-11-15T01:14:19;96778.69;;;8.17;100.00
56198;BME280;42700;42.524;12.052;2022-11-15T01:16:45;96777.91;;;8.16;100.00
56198;BME280;42700;42.524;12.052;2022-11-15T01:19:10;96815.00;;;8.23;100.00
56198;BME280;42700;42.524;12.052;2022-11-15T01:21:36;96858.41;;;8.28;100.00
56198;BME280;42700;42.524;12.052;2022-11-15T01:24:01;96901.63;;;8.36;100.00
56198;BME280;42700;42.524;12.052;2022-11-15T01:26:27;96907.78;;;8.36;100.00
56198;BME280;42700;42.524;12.052;2022-11-15T01:28:53;96896.34;;;8.36;100.00
56198;BME280;42700;42.524;12.052;2022-11-15T01:31:19;96890.44;;;8.34;100.00
56198;BME280;42700;42.524;12.052;2022-11-15T01:33:45;96866.16;;;8.30;100.00
56198;BME280;42700;42.524;12.052;2022-11-15T01:36:14;96851.47;;;8.27;100.00
56198;BME280;42700;42.524;12.052;2022-11-15T01:38:40;96824.13;;;8.20;100.00
56198;BME280;42700;42.524;12.052;2022-11-15T01:41:06;96824.94;;;8.21;100.00
56198;BME280;42700;42.524;12.052;2022-11-15T01:43:34;96844.91;;;8.23;100.00
56198;BME280;42700;42.524;12.052;2022-11-15T01:46:01;96841.63;;;8.21;100.00
56198;BME280;42700;42.524;12.052;2022-11-15T01:48:31;96884.22;;;8.26;100.00
56198;BME280;42700;42.524;12.052;2022-11-15T01:50:58;96892.78;;;8.28;100.00
56198;BME280;42700;42.524;12.052;2022-11-15T01:53:24;96939.06;;;8.32;100.00
56198;BME280;42700;42.524;12.052;2022-11-15T01:55:51;96929.66;;;8.30;100.00
56198;BME280;42700;42.524;12.052;2022-11-15T01:58:17;96910.31;;;8.29;100.00
56198;BME280;42700;42.524;12.052;2022-11-15T02:00:42;96900.72;;;8.28;100.00
56198;BME280;42700;42.524;12.052;2022-11-15T02:03:08;96888.50;;;8.27;100.00
56198;BME280;42700;42.524;12.052;2022-11-15T02:05:33;96841.81;;;8.20;100.00
56198;BME280;42700;42.524;12.052;2022-11-15T02:08:00;96817.47;;;8.09;100.00
56198;BME280;42700;42.524;12.052;2022-11-15T02:10:27;96796.22;;;8.03;100.00
56198;BME280;42700;42.524;12.052;2022-11-15T02:12:52;96833.53;;;8.08;100.00
56198;BME280;42700;42.524;12.052;2022-11-15T02:15:18;96839.78;;;8.07;100.00
56198;BME280;42700;42.524;12.052;2022-11-15T02:20:31;96810.44;;;8.02;100.00
56198;BME280;42700;42.524;12.052;2022-11-15T02:25:41;96978.44;;;8.27;100.00
56198;BME280;42700;42.524;12.052;2022-11-15T02:30:48;97160.19;;;8.50;100.00
56198;BME280;42700;42.524;12.052;2022-11-15T02:33:26;97106.63;;;8.48;100.00
56198;BME280;42700;42.524;12.052;2022-11-15T02:36:01;97027.59;;;8.45;100.00
56198;BME280;42700;42.524;12.052;2022-11-15T02:38:34;96971.91;;;8.38;100.00
56198;BME280;42700;42.524;12.052;2022-11-15T02:43:54;96914.94;;;8.27;100.00
56198;BME280;42700;42.524;12.052;2022-11-15T02:46:29;96890.06;;;8.22;100.00
56198;BME280;42700;42.524;12.052;2022-11-15T02:49:15;96858.03;;;8.17;100.00
56198;BME280;42700;42.524;12.052;2022-11-15T02:51:41;96848.00;;;8.12;100.00
56198;BME280;42700;42.524;12.052;2022-11-15T02:54:17;96848.00;;;8.12;100.00
56198;BME280;42700;42.524;12.052;2022-11-15T02:56:43;96887.94;;;8.17;100.00
56198;BME280;42700;42.524;12.052;2022-11-15T02:59:18;96915.41;;;8.16;100.00
56198;BME280;42700;42.524;12.052;2022-11-15T03:04:26;96855.09;;;7.97;100.00
56198;BME280;42700;42.524;12.052;2022-11-15T03:06:58;96853.09;;;7.99;100.00
56198;BME280;42700;42.524;12.052;2022-11-15T03:09:35;96886.75;;;8.05;100.00
56198;BME280;42700;42.524;12.052;2022-11-15T03:12:07;96930.16;;;8.10;100.00
56198;BME280;42700;42.524;12.052;2022-11-15T03:14:37;96871.72;;;8.05;100.00
56198;BME280;42700;42.524;12.052;2022-11-15T03:17:14;96863.31;;;8.02;100.00
56198;BME280;42700;42.524;12.052;2022-11-15T03:19:47;96870.25;;;8.03;100.00
56198;BME280;42700;42.524;12.052;2022-11-15T03:22:16;96873.91;;;8.02;100.00
56198;BME280;42700;42.524;12.052;2022-11-15T03:24:43;96865.34;;;8.00;100.00
56198;BME280;42700;42.524;12.052;2022-11-15T03:27:10;96859.38;;;7.98;100.00
56198;BME280;42700;42.524;12.052;2022-11-15T03:29:39;96866.84;;;7.94;100.00
56198;BME280;42700;42.524;12.052;2022-11-15T03:32:07;96793.91;;;7.55;100.00
56198;BME280;42700;42.524;12.052;2022-11-15T03:37:01;96829.47;;;7.44;100.00
56198;BME280;42700;42.524;12.052;2022-11-15T03:39:27;96840.38;;;7.41;100.00
56198;BME280;42700;42.524;12.052;2022-11-15T03:47:24;96885.34;;;7.33;100.00
56198;BME280;42700;42.524;12.052;2022-11-15T03:49:52;96896.25;;;7.30;100.00
56198;BME280;42700;42.524;12.052;2022-11-15T03:52:19;96912.09;;;7.30;100.00
56198;BME280;42700;42.524;12.052;2022-11-15T03:54:54;96927.78;;;7.31;100.00
56198;BME280;42700;42.524;12.052;2022-11-15T03:57:20;96953.69;;;7.36;100.00
56198;BME280;42700;42.524;12.052;2022-11-15T03:59:46;96964.38;;;7.43;100.00
56198;BME280;42700;42.524;12.052;2022-11-15T04:02:12;96985.28;;;7.52;100.00
56198;BME280;42700;42.524;12.052;2022-11-15T04:04:38;97030.28;;;7.67;100.00
56198;BME280;42700;42.524;12.052;2022-11-15T04:07:04;97046.72;;;7.78;100.00
56198;BME280;42700;42.524;12.052;2022-11-15T04:09:29;97080.22;;;7.85;100.00
56198;BME280;42700;42.524;12.052;2022-11-15T04:11:55;97104.78;;;7.94;100.00
56198;BME280;42700;42.524;12.052;2022-11-15T04:14:20;97005.88;;;7.88;100.00
56198;BME280;42700;42.524;12.052;2022-11-15T04:16:45;96966.28;;;7.80;100.00
56198;BME280;42700;42.524;12.052;2022-11-15T04:19:11;96931.81;;;7.73;100.00
56198;BME280;42700;42.524;12.052;2022-11-15T04:21:55;96907.91;;;7.67;100.00
56198;BME280;42700;42.524;12.052;2022-11-15T04:24:39;96913.53;;;7.64;100.00
56198;BME280;42700;42.524;12.052;2022-11-15T04:27:05;96885.81;;;7.60;100.00
56198;BME280;42700;42.524;12.052;2022-11-15T04:29:30;96871.97;;;7.57;100.00
56198;BME280;42700;42.524;12.052;2022-11-15T04:32:05;96887.81;;;7.57;100.00
56198;BME280;42700;42.524;12.052;2022-11-15T04:34:31;96924.47;;;7.61;100.00
56198;BME280;42700;42.524;12.052;2022-11-15T04:36:57;96913.88;;;7.61;100.00
56198;BME280;42700;42.524;12.052;2022-11-15T04:39:40;96877.06;;;7.59;100.00
56198;BME280;42700;42.524;12.052;2022-11-15T04:42:06;96891.09;;;7.60;100.00
56198;BME280;42700;42.524;12.052;2022-11-15T04:44:32;96891.09;;;7.60;100.00
56198;BME280;42700;42.524;12.052;2022-11-15T04:46:57;96882.53;;;7.57;100.00
56198;BME280;42700;42.524;12.052;2022-11-15T04:49:23;96881.91;;;7.55;100.00
56198;BME280;42700;42.524;12.052;2022-11-15T04:51:49;96927.44;;;7.57;100.00
56198;BME280;42700;42.524;12.052;2022-11-15T04:54:14;96912.63;;;7.56;100.00
56198;BME280;42700;42.524;12.052;2022-11-15T04:56:40;96955.19;;;7.62;100.00
56198;BME280;42700;42.524;12.052;2022-11-15T04:59:05;96878.56;;;7.62;100.00
56198;BME280;42700;42.524;12.052;2022-11-15T05:01:31;97132.34;;;8.08;100.00
56198;BME280;42700;42.524;12.052;2022-11-15T05:03:56;97175.84;;;8.28;100.00
56198;BME280;42700;42.524;12.052;2022-11-15T05:06:57;97018.78;;;8.29;100.00
56198;BME280;42700;42.524;12.052;2022-11-15T05:09:22;96876.91;;;8.13;100.00
56198;BME280;42700;42.524;12.052;2022-11-15T05:11:48;96818.09;;;7.97;100.00
56198;BME280;42700;42.524;12.052;2022-11-15T05:14:14;96792.72;;;7.87;100.00
56198;BME280;42700;42.524;12.052;2022-11-15T05:16:40;96780.06;;;7.83;100.00
56198;BME280;42700;42.524;12.052;2022-11-15T05:19:05;96797.13;;;7.80;100.00
56198;BME280;42700;42.524;12.052;2022-11-15T05:21:31;96842.31;;;7.85;100.00
56198;BME280;42700;42.524;12.052;2022-11-15T05:23:57;96955.94;;;7.93;100.00
56198;BME280;42700;42.524;12.052;2022-11-15T05:26:22;96935.41;;;7.95;100.00
56198;BME280;42700;42.524;12.052;2022-11-15T05:28:51;96956.03;;;8.00;100.00
56198;BME280;42700;42.524;12.052;2022-11-15T05:31:17;96883.56;;;7.94;100.00
56198;BME280;42700;42.524;12.052;2022-11-15T05:33:43;96839.31;;;7.88;100.00
56198;BME280;42700;42.524;12.052;2022-11-15T05:36:10;96918.91;;;7.93;100.00
56198;BME280;42700;42.524;12.052;2022-11-15T05:38:37;97077.44;;;8.10;100.00
56198;BME280;42700;42.524;12.052;2022-11-15T05:41:02;97184.41;;;8.30;100.00
56198;BME280;42700;42.524;12.052;2022-11-15T05:43:29;97173.78;;;8.39;100.00
56198;BME280;42700;42.524;12.052;2022-11-15T05:45:56;97157.72;;;8.48;100.00
56198;BME280;42700;42.524;12.052;2022-11-15T05:48:22;97204.47;;;8.56;100.00
56198;BME280;42700;42.524;12.052;2022-11-15T05:50:48;97184.94;;;8.57;100.00
56198;BME280;42700;42.524;12.052;2022-11-15T05:53:14;97014.00;;;8.48;100.00
56198;BME280;42700;42.524;12.052;2022-11-15T05:55:41;96926.91;;;8.38;100.00
56198;BME280;42700;42.524;12.052;2022-11-15T05:58:06;96955.84;;;8.40;100.00
56198;BME280;42700;42.524;12.052;2022-11-15T06:00:32;97034.91;;;8.43;100.00
56198;BME280;42700;42.524;12.052;2022-11-15T06:02:57;97120.50;;;8.50;100.00
56198;BME280;42700;42.524;12.052;2022-11-15T06:05:23;97153.72;;;8.53;100.00
56198;BME280;42700;42.524;12.052;2022-11-15T06:07:48;97206.09;;;8.57;100.00
56198;BME280;42700;42.524;12.052;2022-11-15T06:10:14;97236.38;;;8.63;100.00
56198;BME280;42700;42.524;12.052;2022-11-15T06:12:39;97252.38;;;8.70;100.00
56198;BME280;42700;42.524;12.052;2022-11-15T06:15:05;97247.53;;;8.73;100.00
56198;BME280;42700;42.524;12.052;2022-11-15T06:17:30;97292.03;;;8.78;100.00
56198;BME280;42700;42.524;12.052;2022-11-15T06:19:56;97310.50;;;8.86;100.00
56198;BME280;42700;42.524;12.052;2022-11-15T06:22:21;97386.91;;;8.97;100.00
56198;BME280;42700;42.524;12.052;2022-11-15T06:24:46;97425.25;;;9.10;100.00
56198;BME280;42700;42.524;12.052;2022-11-15T06:27:12;97484.97;;;9.20;100.00
56198;BME280;42700;42.524;12.052;2022-11-15T06:29:37;97512.09;;;9.31;100.00
56198;BME280;42700;42.524;12.052;2022-11-15T06:32:03;97539.38;;;9.39;100.00
56198;BME280;42700;42.524;12.052;2022-11-15T06:34:28;97582.38;;;9.50;100.00
56198;BME280;42700;42.524;12.052;2022-11-15T06:36:54;97616.81;;;9.58;100.00
56198;BME280;42700;42.524;12.052;2022-11-15T06:39:19;97630.38;;;9.63;100.00
56198;BME280;42700;42.524;12.052;2022-11-15T06:41:45;97669.16;;;9.64;100.00
56198;BME280;42700;42.524;12.052;2022-11-15T06:44:11;97692.34;;;9.70;100.00
56198;BME280;42700;42.524;12.052;2022-11-15T06:46:36;97731.44;;;9.76;100.00
56198;BME280;42700;42.524;12.052;2022-11-15T06:49:01;97731.94;;;9.80;100.00
56198;BME280;42700;42.524;12.052;2022-11-15T06:51:27;97736.06;;;9.83;100.00
56198;BME280;42700;42.524;12.052;2022-11-15T06:53:52;97878.44;;;9.98;100.00
56198;BME280;42700;42.524;12.052;2022-11-15T06:56:18;97920.72;;;10.08;100.00
56198;BME280;42700;42.524;12.052;2022-11-15T06:58:43;97859.03;;;10.06;100.00
56198;BME280;42700;42.524;12.052;2022-11-15T07:01:09;97929.31;;;10.10;100.00
56198;BME280;42700;42.524;12.052;2022-11-15T07:03:36;98020.53;;;10.18;100.00
56198;BME280;42700;42.524;12.052;2022-11-15T07:06:01;98034.13;;;10.23;100.00
56198;BME280;42700;42.524;12.052;2022-11-15T07:08:27;98069.00;;;10.28;100.00
56198;BME280;42700;42.524;12.052;2022-11-15T07:10:54;97993.81;;;10.27;100.00
56198;BME280;42700;42.524;12.052;2022-11-15T07:13:19;98070.34;;;10.32;100.00
56198;BME280;42700;42.524;12.052;2022-11-15T07:15:45;98160.78;;;10.39;100.00
56198;BME280;42700;42.524;12.052;2022-11-15T07:18:10;98155.97;;;10.42;100.00
56198;BME280;42700;42.524;12.052;2022-11-15T07:20:36;97932.31;;;10.32;100.00
56198;BME280;42700;42.524;12.052;2022-11-15T07:23:02;98041.47;;;10.37;100.00
56198;BME280;42700;42.524;12.052;2022-11-15T07:25:28;97881.19;;;10.30;100.00
56198;BME280;42700;42.524;12.052;2022-11-15T07:27:54;98102.84;;;10.42;100.00
56198;BME280;42700;42.524;12.052;2022-11-15T07:30:20;98283.59;;;10.57;100.00
56198;BME280;42700;42.524;12.052;2022-11-15T07:32:45;98297.59;;;10.59;100.00
56198;BME280;42700;42.524;12.052;2022-11-15T07:35:11;98362.84;;;10.70;100.00
56198;BME280;42700;42.524;12.052;2022-11-15T07:37:37;98319.66;;;10.68;100.00
56198;BME280;42700;42.524;12.052;2022-11-15T07:40:02;98173.56;;;10.60;100.00
56198;BME280;42700;42.524;12.052;2022-11-15T07:42:30;98447.88;;;10.78;100.00
56198;BME280;42700;42.524;12.052;2022-11-15T07:45:14;98498.91;;;10.90;100.00
56198;BME280;42700;42.524;12.052;2022-11-15T07:47:40;98546.94;;;10.97;100.00
56198;BME280;42700;42.524;12.052;2022-11-15T07:50:05;98514.22;;;10.96;100.00
56198;BME280;42700;42.524;12.052;2022-11-15T07:52:31;98563.94;;;11.04;100.00
56198;BME280;42700;42.524;12.052;2022-11-15T07:54:56;98676.28;;;11.14;100.00
56198;BME280;42700;42.524;12.052;2022-11-15T07:57:22;98717.22;;;11.21;100.00
56198;BME280;42700;42.524;12.052;2022-11-15T07:59:47;98640.41;;;11.18;100.00
56198;BME280;42700;42.524;12.052;2022-11-15T08:02:12;98520.75;;;11.10;100.00
56198;BME280;42700;42.524;12.052;2022-11-15T08:04:38;98310.59;;;10.95;100.00
56198;BME280;42700;42.524;12.052;2022-11-15T08:07:03;98416.41;;;11.00;100.00
56198;BME280;42700;42.524;12.052;2022-11-15T08:09:29;98608.19;;;11.21;100.00
56198;BME280;42700;42.524;12.052;2022-11-15T08:11:54;98706.00;;;11.36;100.00
56198;BME280;42700;42.524;12.052;2022-11-15T08:14:20;98702.34;;;11.37;100.00
56198;BME280;42700;42.524;12.052;2022-11-15T08:16:47;98789.84;;;11.48;100.00
56198;BME280;42700;42.524;12.052;2022-11-15T08:19:12;98741.00;;;11.49;100.00
56198;BME280;42700;42.524;12.052;2022-11-15T08:21:38;98626.75;;;11.39;100.00
56198;BME280;42700;42.524;12.052;2022-11-15T08:24:03;98740.00;;;11.50;100.00
56198;BME280;42700;42.524;12.052;2022-11-15T08:26:29;98712.41;;;11.51;100.00
56198;BME280;42700;42.524;12.052;2022-11-15T08:28:55;98922.91;;;11.74;100.00
56198;BME280;42700;42.524;12.052;2022-11-15T08:31:20;98770.81;;;11.61;100.00
56198;BME280;42700;42.524;12.052;2022-11-15T08:33:46;98522.22;;;11.47;100.00
56198;BME280;42700;42.524;12.052;2022-11-15T08:36:13;98471.69;;;11.39;100.00
56198;BME280;42700;42.524;12.052;2022-11-15T08:38:38;98567.75;;;11.44;100.00
56198;BME280;42700;42.524;12.052;2022-11-15T08:41:04;97949.72;;;10.90;100.00
56198;BME280;42700;42.524;12.052;2022-11-15T08:43:29;98166.91;;;11.05;100.00
56198;BME280;42700;42.524;12.052;2022-11-15T08:45:56;98037.38;;;10.90;100.00
56198;BME280;42700;42.524;12.052;2022-11-15T08:48:21;98343.53;;;11.19;100.00
56198;BME280;42700;42.524;12.052;2022-11-15T08:50:47;98102.16;;;10.98;100.00
56198;BME280;42700;42.524;12.052;2022-11-15T08:53:12;98084.88;;;10.94;100.00
56198;BME280;42700;42.524;12.052;2022-11-15T08:55:40;98393.84;;;11.20;100.00
56198;BME280;42700;42.524;12.052;2022-11-15T08:58:05;98393.84;;;11.20;100.00
56198;BME280;42700;42.524;12.052;2022-11-15T09:00:31;98552.28;;;11.39;100.00
56198;BME280;42700;42.524;12.052;2022-11-15T09:02:57;98573.06;;;11.44;100.00
56198;BME280;42700;42.524;12.052;2022-11-15T09:05:22;98691.31;;;11.58;100.00
56198;BME280;42700;42.524;12.052;2022-11-15T09:07:52;98330.25;;;11.27;100.00
56198;BME280;42700;42.524;12.052;2022-11-15T09:10:18;98708.34;;;11.65;100.00
56198;BME280;42700;42.524;12.052;2022-11-15T09:12:43;98854.13;;;11.88;100.00
56198;BME280;42700;42.524;12.052;2022-11-15T09:15:09;98578.81;;;11.66;100.00
56198;BME280;42700;42.524;12.052;2022-11-15T09:17:34;98873.88;;;11.95;100.00
56198;BME280;42700;42.524;12.052;2022-11-15T09:20:00;98535.06;;;11.68;100.00
56198;BME280;42700;42.524;12.052;2022-11-15T09:22:25;98741.53;;;11.87;100.00
56198;BME280;42700;42.524;12.052;2022-11-15T09:24:51;98704.28;;;11.87;100.00
56198;BME280;42700;42.524;12.052;2022-11-15T09:27:16;98762.59;;;11.98;100.00
56198;BME280;42700;42.524;12.052;2022-11-15T09:29:42;98736.94;;;11.97;100.00
56198;BME280;42700;42.524;12.052;2022-11-15T09:32:07;98581.19;;;11.85;100.00
56198;BME280;42700;42.524;12.052;2022-11-15T09:34:33;98607.97;;;11.84;100.00
56198;BME280;42700;42.524;12.052;2022-11-15T09:36:58;98795.19;;;12.00;100.00
56198;BME280;42700;42.524;12.052;2022-11-15T09:39:24;98928.41;;;12.17;100.00
56198;BME280;42700;42.524;12.052;2022-11-15T09:42:02;99060.69;;;12.34;100.00
56198;BME280;42700;42.524;12.052;2022-11-15T09:49:40;99218.31;;;12.66;100.00
56198;BME280;42700;42.524;12.052;2022-11-15T09:52:06;99267.59;;;12.80;100.00
56198;BME280;42700;42.524;12.052;2022-11-15T09:54:36;99095.25;;;12.70;100.00
56198;BME280;42700;42.524;12.052;2022-11-15T09:57:04;99409.53;;;13.09;100.00
56198;BME280;42700;42.524;12.052;2022-11-15T09:59:41;99381.19;;;13.08;100.00
56198;BME280;42700;42.524;12.052;2022-11-15T10:04:37;99349.84;;;13.10;100.00
56198;BME280;42700;42.524;12.052;2022-11-15T10:09:31;99233.00;;;13.06;100.00
56198;BME280;42700;42.524;12.052;2022-11-15T10:11:59;99420.69;;;13.23;100.00
56198;BME280;42700;42.524;12.052;2022-11-15T10:14:25;99596.97;;;13.39;100.00
56198;BME280;42700;42.524;12.052;2022-11-15T10:24:42;99772.75;;;13.62;100.00
56198;BME280;42700;42.524;12.052;2022-11-15T10:27:12;99789.34;;;13.65;100.00
56198;BME280;42700;42.524;12.052;2022-11-15T10:29:45;99559.72;;;13.47;100.00
56198;BME280;42700;42.524;12.052;2022-11-15T10:32:12;99719.34;;;13.62;100.00
56198;BME280;42700;42.524;12.052;2022-11-15T10:34:38;99763.47;;;13.66;100.00
56198;BME280;42700;42.524;12.052;2022-11-15T10:37:03;99413.31;;;13.35;100.00
56198;BME280;42700;42.524;12.052;2022-11-15T10:39:29;99767.09;;;13.65;100.00
56198;BME280;42700;42.524;12.052;2022-11-15T10:41:54;99867.72;;;13.74;100.00
56198;BME280;42700;42.524;12.052;2022-11-15T10:44:21;99837.66;;;13.72;100.00
56198;BME280;42700;42.524;12.052;2022-11-15T10:51:53;99873.03;;;13.74;100.00
56198;BME280;42700;42.524;12.052;2022-11-15T10:56:49;100156.69;;;13.97;100.00
56198;BME280;42700;42.524;12.052;2022-11-15T10:59:17;99658.72;;;13.54;100.00
56198;BME280;42700;42.524;12.052;2022-11-15T11:01:46;99972.25;;;13.79;100.00
56198;BME280;42700;42.524;12.052;2022-11-15T11:04:13;100191.28;;;13.99;100.00
56198;BME280;42700;42.524;12.052;2022-11-15T11:11:54;100034.94;;;13.85;100.00
56198;BME280;42700;42.524;12.052;2022-11-15T11:16:53;99979.28;;;13.80;100.00
56198;BME280;42700;42.524;12.052;2022-11-15T11:21:55;100249.50;;;14.05;100.00
56198;BME280;42700;42.524;12.052;2022-11-15T11:37:03;100135.31;;;13.88;100.00
56198;BME280;42700;42.524;12.052;2022-11-15T11:44:47;99845.81;;;13.61;100.00
56198;BME280;42700;42.524;12.052;2022-11-15T11:47:16;99969.72;;;13.68;100.00
56198;BME280;42700;42.524;12.052;2022-11-15T12:00:03;100120.97;;;13.79;100.00
56198;BME280;42700;42.524;12.052;2022-11-15T12:02:39;100183.66;;;13.84;100.00
56198;BME280;42700;42.524;12.052;2022-11-15T12:07:58;100345.34;;;13.98;100.00
56198;BME280;42700;42.524;12.052;2022-11-15T12:10:28;100401.94;;;14.03;100.00
56198;BME280;42700;42.524;12.052;2022-11-15T12:13:06;100397.41;;;14.04;100.00
56198;BME280;42700;42.524;12.052;2022-11-15T12:15:39;100522.94;;;14.15;100.00
56198;BME280;42700;42.524;12.052;2022-11-15T12:18:08;100504.94;;;14.17;100.00
56198;BME280;42700;42.524;12.052;2022-11-15T12:20:39;100414.59;;;14.11;100.00
56198;BME280;42700;42.524;12.052;2022-11-15T12:23:07;100591.38;;;14.28;100.00
56198;BME280;42700;42.524;12.052;2022-11-15T12:31:23;100541.03;;;14.33;100.00
56198;BME280;42700;42.524;12.052;2022-11-15T12:33:49;100489.78;;;14.28;100.00
56198;BME280;42700;42.524;12.052;2022-11-15T12:38:51;100447.03;;;14.28;100.00
56198;BME280;42700;42.524;12.052;2022-11-15T12:41:19;100339.00;;;14.20;100.00
56198;BME280;42700;42.524;12.052;2022-11-15T12:43:46;100359.22;;;14.23;100.00
56198;BME280;42700;42.524;12.052;2022-11-15T12:46:13;100179.75;;;14.08;100.00
56198;BME280;42700;42.524;12.052;2022-11-15T12:51:04;100138.13;;;14.06;100.00
56198;BME280;42700;42.524;12.052;2022-11-15T12:53:30;100078.09;;;14.00;100.00
56198;BME280;42700;42.524;12.052;2022-11-15T13:04:08;99751.34;;;13.72;100.00
56198;BME280;42700;42.524;12.052;2022-11-15T13:06:44;99727.78;;;13.67;100.00
56198;BME280;42700;42.524;12.052;2022-11-15T13:11:53;99745.47;;;13.68;100.00
56198;BME280;42700;42.524;12.052;2022-11-15T13:14:38;99658.97;;;13.61;100.00
56198;BME280;42700;42.524;12.052;2022-11-15T13:19:39;99540.88;;;13.49;100.00
56198;BME280;42700;42.524;12.052;2022-11-15T13:22:08;99530.34;;;13.47;100.00
56198;BME280;42700;42.524;12.052;2022-11-15T13:24:53;99407.16;;;13.34;100.00
56198;BME280;42700;42.524;12.052;2022-11-15T13:27:19;99375.41;;;13.31;100.00
56198;BME280;42700;42.524;12.052;2022-11-15T13:29:45;99525.31;;;13.44;100.00
56198;BME280;42700;42.524;12.052;2022-11-15T13:32:12;99308.34;;;13.26;100.00
56198;BME280;42700;42.524;12.052;2022-11-15T13:34:38;99147.88;;;13.13;100.00
56198;BME280;42700;42.524;12.052;2022-11-15T13:37:27;99329.69;;;13.26;100.00
56198;BME280;42700;42.524;12.052;2022-11-15T13:39:55;99100.34;;;13.08;100.00
56198;BME280;42700;42.524;12.052;2022-11-15T13:42:35;99029.13;;;13.00;100.00
56198;BME280;42700;42.524;12.052;2022-11-15T13:45:02;99354.66;;;13.25;100.00
56198;BME280;42700;42.524;12.052;2022-11-15T13:47:28;99112.84;;;13.07;100.00
56198;BME280;42700;42.524;12.052;2022-11-15T13:49:58;99171.88;;;13.13;100.00
56198;BME280;42700;42.524;12.052;2022-11-15T13:52:25;99205.38;;;13.15;100.00
56198;BME280;42700;42.524;12.052;2022-11-15T13:54:55;98809.78;;;12.82;100.00
56198;BME280;42700;42.524;12.052;2022-11-15T13:57:23;99288.44;;;13.20;100.00
56198;BME280;42700;42.524;12.052;2022-11-15T14:02:16;99426.22;;;13.39;100.00
56198;BME280;42700;42.524;12.052;2022-11-15T14:04:52;99415.22;;;13.42;100.00
56198;BME280;42700;42.524;12.052;2022-11-15T14:07:23;99355.97;;;13.39;100.00
56198;BME280;42700;42.524;12.052;2022-11-15T14:09:49;99457.00;;;13.52;100.00
56198;BME280;42700;42.524;12.052;2022-11-15T14:14:50;99188.81;;;13.29;100.00
56198;BME280;42700;42.524;12.052;2022-11-15T14:17:19;99351.19;;;13.42;100.00
56198;BME280;42700;42.524;12.052;2022-11-15T14:19:44;99373.06;;;13.46;100.00
56198;BME280;42700;42.524;12.052;2022-11-15T14:22:11;99319.16;;;13.42;100.00
56198;BME280;42700;42.524;12.052;2022-11-15T14:24:37;99364.59;;;13.51;100.00
56198;BME280;42700;42.524;12.052;2022-11-15T14:30:01;99328.06;;;13.51;100.00
56198;BME280;42700;42.524;12.052;2022-11-15T14:32:27;99326.22;;;13.52;100.00
56198;BME280;42700;42.524;12.052;2022-11-15T14:35:01;99208.75;;;13.43;100.00
56198;BME280;42700;42.524;12.052;2022-11-15T14:37:30;99272.19;;;13.50;100.00
56198;BME280;42700;42.524;12.052;2022-11-15T14:39:58;99275.81;;;13.48;100.00
56198;BME280;42700;42.524;12.052;2022-11-15T14:42:24;99347.94;;;13.57;100.00
56198;BME280;42700;42.524;12.052;2022-11-15T14:44:50;99314.25;;;13.56;100.00
56198;BME280;42700;42.524;12.052;2022-11-15T14:47:15;99153.41;;;13.45;100.00